Catàleg de serveis del Meteocat
Campanya meteocatpedra

Dades de l'estació automàtica Aitona

?
?
Resum diari 22:00 TU
Dades diàries de l'estació meteorològica
Temperatura mitjana 14.3 °C
Temperatura màxima 20.2 °C 13:58 TU
Temperatura mínima 7.1 °C 5:20 TU
Humitat relativa mitjana 65%
Precipitació acumulada 0.0 mm
Ratxa màxima del vent (2 m) 30.2 km/h - 28º 10:39 TU
Irradiació solar global 6.4 MJ/m2

El tram horari està expressat en Temps Universal (TU). Cal sumar una hora en horari d'hivern i dues en horari d'estiu per passar a l'hora oficial.

Aitona

Metadades estació meteorol´gica
Municipi Aitona
Comarca Segrià
Altitud 97 m
Data alta 12.03.1998
Estat actual Operativa
Dades de període
Període
TU
TM
°C
TX
°C
TN
°C
HRM
%
PPT
mm
VVM (2 m)
km/h
DVM (2 m)
graus
VVX (2 m)
km/h
RS
W/m2
00:00 - 00:30 10.6 11.8 10.3 83 0.0 1.4 65 3.6 0
00:30 - 01:00 9.9 10.3 9.5 85 0.0 1.8 57 5.4 0
01:00 - 01:30 9.3 10.2 8.9 86 0.0 2.2 38 5.4 0
01:30 - 02:00 9.7 10.1 9.3 85 0.0 3.6 357 7.2 0
02:00 - 02:30 9.5 10.1 9.1 84 0.0 4.7 35 9.0 0
02:30 - 03:00 8.8 9.4 8.2 87 0.0 4.0 48 8.6 0
03:00 - 03:30 8.5 9.0 8.3 90 0.0 4.3 50 9.4 0
03:30 - 04:00 8.4 8.6 8.3 91 0.0 2.9 54 7.9 0
04:00 - 04:30 8.1 8.3 7.7 93 0.0 0.7 61 4.7 0
04:30 - 05:00 7.7 7.8 7.5 94 0.0 1.4 236 4.3 0
05:00 - 05:30 7.3 7.5 7.1 95 0.0 0.7 220 3.6 1
05:30 - 06:00 7.6 7.7 7.4 96 0.0 0.0 185 3.2 23
06:00 - 06:30 7.7 8.0 7.5 95 0.0 0.4 285 3.2 53
06:30 - 07:00 8.7 9.8 8.1 94 0.0 0.7 30 3.2 130
07:00 - 07:30 10.3 10.7 9.9 86 0.0 2.2 41 5.8 163
07:30 - 08:00 10.8 10.9 10.7 85 0.0 1.8 312 5.8 40
08:00 - 08:30 10.7 10.8 10.6 87 0.0 2.5 61 5.8 24
08:30 - 09:00 11.2 11.5 10.8 87 0.0 0.4 179 4.0 95
09:00 - 09:30 11.7 12.3 11.5 86 0.0 3.6 44 8.6 92
09:30 - 10:00 13.8 15.2 12.4 73 0.0 9.4 34 22.3 111
10:00 - 10:30 15.6 16.0 15.3 52 0.0 14.4 39 29.9 190
10:30 - 11:00 16.2 16.5 16.0 49 0.0 15.5 39 30.2 227
11:00 - 11:30 16.7 17.1 16.5 51 0.0 13.3 39 27.4 231
11:30 - 12:00 17.3 17.4 17.1 50 0.0 11.2 43 25.2 234
12:00 - 12:30 17.7 18.0 17.4 50 0.0 11.9 44 27.4 260
12:30 - 13:00 18.2 18.6 18.0 48 0.0 12.2 40 24.8 248
13:00 - 13:30 18.8 19.1 18.6 46 0.0 10.1 42 23.4 254
13:30 - 14:00 19.7 20.2 19.2 43 0.0 7.6 46 20.2 271
14:00 - 14:30 20.1 20.2 20.1 39 0.0 5.4 69 14.8 195
14:30 - 15:00 20.1 20.2 20.0 40 0.0 7.9 57 19.4 182
15:00 - 15:30 19.7 19.9 19.6 42 0.0 9.7 53 24.5 123
15:30 - 16:00 19.5 19.6 19.3 44 0.0 9.7 52 22.3 90
16:00 - 16:30 19.6 19.7 19.4 41 0.0 10.8 50 27.7 132
16:30 - 17:00 19.5 19.7 19.2 43 0.0 8.3 53 20.9 114
17:00 - 17:30 19.2 19.3 18.9 44 0.0 9.7 54 24.5 62
17:30 - 18:00 18.8 19.0 18.5 46 0.0 10.1 58 27.0 40
18:00 - 18:30 18.4 18.6 18.2 48 0.0 11.2 53 28.4 15
18:30 - 19:00 17.9 18.2 17.6 50 0.0 7.2 59 19.8 0
19:00 - 19:30 17.4 17.6 17.2 51 0.0 6.5 52 16.9 0
19:30 - 20:00 17.4 17.5 17.2 52 0.0 9.0 50 22.3 0
20:00 - 20:30 17.4 17.6 17.1 51 0.0 10.8 47 26.3 0
20:30 - 21:00 17.0 17.2 16.6 50 0.0 10.4 34 20.2 0
21:00 - 21:30 16.6 16.9 16.4 47 0.0 13.0 31 23.4 0
21:30 - 22:00 16.7 16.9 16.4 46 0.0 13.7 29 24.8 0
22:00 - 22:30 16.2 16.4 16.1 50 0.0 8.6 34 16.2 0

Les dades en taronja només han passat un control de qualitat automàtic. Resta pendent la seva validació definitiva.